Time;durP1;ratioP1;P1;durP2;ratioP2;P2;SDS_P1;SDS_P2;PMS_P1;PMS_P2;Temp;Humidity;BMP_temperature;BMP_pressure;BME280_temperature;BME280_humidity;BME280_pressure;Samples;Min_cycle;Max_cycle;Signal;HPM_P1;HPM_P2
2023/03/11 00:01:16;;;;;;;0.88;0.70;;;20.80;69.00;;;;;;5043575;28;20192;-54
2023/03/11 00:03:44;;;;;;;2.45;0.80;;;20.80;69.10;;;;;;5043724;28;20199;-61
2023/03/11 00:06:10;;;;;;;0.90;0.80;;;20.70;69.00;;;;;;5043384;28;20234;-59
2023/03/11 00:08:37;;;;;;;0.82;0.65;;;20.70;69.00;;;;;;5048021;28;20545;-56
2023/03/11 00:11:04;;;;;;;0.90;0.70;;;20.70;69.00;;;;;;5040309;28;20197;-53
2023/03/11 00:13:31;;;;;;;0.98;0.80;;;20.70;69.00;;;;;;5048906;28;20555;-53
2023/03/11 00:16:00;;;;;;;0.90;0.73;;;20.70;69.00;;;;;;5042790;28;20212;-60
2023/03/11 00:18:30;;;;;;;1.20;0.77;;;20.70;69.00;;;;;;5048431;28;20192;-62
2023/03/11 00:20:59;;;;;;;1.15;1.00;;;20.70;69.00;;;;;;5049134;28;20566;-61
2023/03/11 00:23:26;;;;;;;0.90;0.73;;;20.70;69.80;;;;;;5045508;28;20222;-59
2023/03/11 00:25:53;;;;;;;1.58;0.80;;;20.70;69.10;;;;;;5042591;28;20634;-52
2023/03/11 00:28:21;;;;;;;1.10;0.90;;;20.70;69.10;;;;;;5047601;28;20191;-55
2023/03/11 00:30:47;;;;;;;0.80;0.60;;;20.70;69.10;;;;;;5047829;28;20195;-52
2023/03/11 00:33:15;;;;;;;1.13;0.70;;;20.70;69.00;;;;;;5045252;28;20211;-53
2023/03/11 00:35:43;;;;;;;2.55;1.13;;;20.70;69.10;;;;;;5045142;28;20500;-59
2023/03/11 00:38:18;;;;;;;0.80;0.65;;;20.70;69.00;;;;;;5049462;28;20198;-56
2023/03/11 00:40:46;;;;;;;0.90;0.70;;;20.70;69.10;;;;;;5036068;28;20209;-72
2023/03/11 00:43:13;;;;;;;0.98;0.70;;;20.70;69.00;;;;;;5037843;28;20215;-62
2023/03/11 00:45:40;;;;;;;1.00;0.82;;;20.70;69.10;;;;;;5044583;28;20215;-52
2023/03/11 00:48:07;;;;;;;0.90;0.65;;;20.70;69.10;;;;;;5046295;28;20192;-62
2023/03/11 00:50:36;;;;;;;0.90;0.80;;;20.70;69.10;;;;;;5044876;28;20187;-55
2023/03/11 00:53:04;;;;;;;2.38;0.80;;;20.70;69.10;;;;;;5040568;28;20200;-62
2023/03/11 00:55:34;;;;;;;1.80;0.70;;;20.60;69.10;;;;;;5041376;28;20541;-56
2023/03/11 00:58:03;;;;;;;1.00;0.70;;;20.60;69.30;;;;;;5047992;28;20676;-54
2023/03/11 01:00:31;;;;;;;0.90;0.70;;;20.60;69.50;;;;;;5039061;28;20199;-52
2023/03/11 01:02:59;;;;;;;5.03;0.70;;;20.60;69.40;;;;;;5038974;28;20196;-52
2023/03/11 01:05:27;;;;;;;2.97;0.70;;;20.60;69.40;;;;;;5037465;28;20653;-54
2023/03/11 01:07:54;;;;;;;0.85;0.65;;;20.60;69.30;;;;;;5041044;28;20655;-56
2023/03/11 01:10:21;;;;;;;0.95;0.85;;;20.60;69.30;;;;;;5040554;28;20198;-59
2023/03/11 01:12:49;;;;;;;6.15;0.80;;;20.60;69.20;;;;;;5053952;28;20195;-51
2023/03/11 01:15:19;;;;;;;1.00;0.88;;;20.60;69.20;;;;;;5045379;28;20586;-54
2023/03/11 01:17:46;;;;;;;0.90;0.70;;;20.60;69.20;;;;;;5045040;28;20195;-50
2023/03/11 01:20:13;;;;;;;1.95;0.80;;;20.60;69.20;;;;;;5046041;28;20196;-56
2023/03/11 01:22:40;;;;;;;2.50;0.70;;;20.60;69.20;;;;;;5046635;28;20230;-53
2023/03/11 01:25:08;;;;;;;0.82;0.60;;;20.60;69.10;;;;;;5047534;28;21757;-61
2023/03/11 01:27:35;;;;;;;0.80;0.63;;;20.60;69.20;;;;;;5052122;28;20207;-63
2023/03/11 01:30:04;;;;;;;0.90;0.60;;;20.60;69.10;;;;;;5052964;28;20200;-53
2023/03/11 01:32:30;;;;;;;0.90;0.70;;;20.60;69.20;;;;;;5042631;28;20200;-55
2023/03/11 01:34:57;;;;;;;0.90;0.70;;;20.60;69.10;;;;;;5048465;28;20195;-60
2023/03/11 01:37:24;;;;;;;0.80;0.70;;;20.60;69.10;;;;;;5053778;28;20210;-55
2023/03/11 01:39:50;;;;;;;0.80;0.60;;;20.60;69.10;;;;;;5051330;28;20651;-52
2023/03/11 01:42:17;;;;;;;0.88;0.60;;;20.60;69.10;;;;;;5050252;28;20207;-57
2023/03/11 01:44:44;;;;;;;1.00;0.70;;;20.60;69.10;;;;;;5050321;28;20715;-53
2023/03/11 01:47:36;;;;;;;0.80;0.60;;;20.60;69.10;;;;;;5046616;28;20215;-54
2023/03/11 01:50:05;;;;;;;2.25;0.70;;;20.60;69.10;;;;;;5048963;28;20563;-50
2023/03/11 01:52:32;;;;;;;0.80;0.60;;;20.60;69.10;;;;;;5044209;28;20192;-51
2023/03/11 01:54:59;;;;;;;0.95;0.70;;;20.60;69.00;;;;;;5046555;28;20200;-50
2023/03/11 01:57:26;;;;;;;1.70;0.60;;;20.60;69.00;;;;;;5050812;28;20200;-59
2023/03/11 01:59:58;;;;;;;0.93;0.70;;;20.60;69.00;;;;;;5047979;28;20598;-55
2023/03/11 02:02:31;;;;;;;1.40;0.80;;;20.60;69.80;;;;;;5046351;28;20648;-53
2023/03/11 02:05:01;;;;;;;0.80;0.60;;;20.60;69.00;;;;;;5042426;28;20247;-53
2023/03/11 02:07:28;;;;;;;1.08;0.70;;;20.60;69.00;;;;;;5048857;28;20230;-67
2023/03/11 02:09:55;;;;;;;1.75;0.68;;;20.50;68.90;;;;;;5046286;28;20208;-54
2023/03/11 02:12:22;;;;;;;1.10;0.73;;;20.60;69.00;;;;;;5050356;28;20192;-58
2023/03/11 02:14:50;;;;;;;1.15;0.80;;;20.60;69.00;;;;;;5046553;28;20203;-53
2023/03/11 02:17:18;;;;;;;0.98;0.60;;;20.50;68.80;;;;;;5048891;28;20586;-51
2023/03/11 02:20:12;;;;;;;1.10;0.63;;;20.60;68.90;;;;;;5050634;28;20211;-54
2023/03/11 02:22:40;;;;;;;1.15;0.82;;;20.50;68.80;;;;;;5048550;28;20223;-58
2023/03/11 02:25:14;;;;;;;0.90;0.68;;;20.50;68.80;;;;;;5049381;28;20226;-51
2023/03/11 02:27:46;;;;;;;0.80;0.70;;;20.50;68.70;;;;;;5053186;28;20235;-54
2023/03/11 02:30:14;;;;;;;0.85;0.60;;;20.50;68.70;;;;;;5046482;28;20188;-68
2023/03/11 02:32:42;;;;;;;2.03;0.70;;;20.50;68.70;;;;;;5048156;28;20195;-53
2023/03/11 02:35:09;;;;;;;0.88;0.70;;;20.50;69.20;;;;;;5049423;28;20198;-54
2023/03/11 02:37:36;;;;;;;0.98;0.70;;;20.50;68.70;;;;;;5051137;28;20203;-57
2023/03/11 02:40:35;;;;;;;0.80;0.60;;;20.50;68.70;;;;;;5042339;28;20594;-53
2023/03/11 02:43:07;;;;;;;0.90;0.73;;;20.50;69.50;;;;;;5051428;28;20425;-53
2023/03/11 02:45:35;;;;;;;1.48;1.35;;;20.50;68.70;;;;;;5045559;28;20202;-53
2023/03/11 02:48:03;;;;;;;0.95;0.65;;;20.50;68.70;;;;;;5043919;28;20207;-59
2023/03/11 02:50:33;;;;;;;1.10;0.80;;;20.50;68.70;;;;;;5040162;28;20196;-57
2023/03/11 02:53:00;;;;;;;0.90;0.70;;;20.50;68.60;;;;;;5041635;28;20198;-55
2023/03/11 02:55:26;;;;;;;0.80;0.60;;;20.50;68.60;;;;;;5048874;28;20532;-56
2023/03/11 02:57:53;;;;;;;0.80;0.60;;;20.50;68.60;;;;;;5043568;28;20214;-54
2023/03/11 03:00:21;;;;;;;1.10;0.80;;;20.50;68.60;;;;;;5040461;28;20327;-54
2023/03/11 03:02:50;;;;;;;1.83;0.80;;;20.50;68.60;;;;;;5046988;28;20197;-58
2023/03/11 03:05:19;;;;;;;0.90;0.63;;;20.50;68.60;;;;;;5045733;28;20282;-52
2023/03/11 03:07:46;;;;;;;0.80;0.60;;;20.60;68.60;;;;;;5044155;28;20773;-60
2023/03/11 03:10:14;;;;;;;1.33;0.70;;;20.50;68.50;;;;;;5039487;28;20663;-52
2023/03/11 03:12:41;;;;;;;1.00;0.60;;;20.50;68.50;;;;;;5043861;28;20199;-56
2023/03/11 03:15:09;;;;;;;1.63;0.80;;;20.60;68.60;;;;;;5044963;28;20670;-56
2023/03/11 03:17:37;;;;;;;0.88;0.60;;;20.60;68.60;;;;;;5050219;28;20250;-54
2023/03/11 03:20:10;;;;;;;0.80;0.60;;;20.60;68.60;;;;;;5049930;28;20210;-51
2023/03/11 03:22:40;;;;;;;1.05;0.65;;;20.60;68.50;;;;;;5050767;28;20222;-56
2023/03/11 03:25:08;;;;;;;0.90;0.70;;;20.60;68.50;;;;;;5048334;28;20207;-55
2023/03/11 03:27:35;;;;;;;0.90;0.60;;;20.60;68.50;;;;;;5051435;28;20220;-55
2023/03/11 03:30:01;;;;;;;0.90;0.70;;;20.60;68.50;;;;;;5048817;28;20204;-50
2023/03/11 03:32:28;;;;;;;0.85;0.68;;;20.60;69.30;;;;;;5043070;28;20199;-60
2023/03/11 03:34:57;;;;;;;0.90;0.70;;;20.60;68.50;;;;;;5047927;28;20663;-56
2023/03/11 03:37:25;;;;;;;1.65;0.60;;;20.60;68.50;;;;;;5050799;28;20227;-61
2023/03/11 03:39:52;;;;;;;0.80;0.60;;;20.60;68.50;;;;;;5048257;28;20206;-49
2023/03/11 03:42:18;;;;;;;4.50;0.80;;;20.60;68.50;;;;;;5048289;28;20685;-59
2023/03/11 03:44:45;;;;;;;0.80;0.68;;;20.60;68.40;;;;;;5048075;28;20450;-53
2023/03/11 03:47:12;;;;;;;1.13;0.70;;;20.60;68.40;;;;;;5047305;28;20223;-51
2023/03/11 03:49:39;;;;;;;0.93;0.73;;;20.60;68.40;;;;;;5047211;28;20195;-56
2023/03/11 03:52:07;;;;;;;1.60;0.60;;;20.60;68.40;;;;;;5039930;28;20206;-56
2023/03/11 03:54:34;;;;;;;0.88;0.60;;;20.60;68.40;;;;;;5044843;28;20233;-53
2023/03/11 03:57:01;;;;;;;0.95;0.70;;;20.60;68.40;;;;;;5046392;28;20203;-55
2023/03/11 03:59:28;;;;;;;0.80;0.60;;;20.60;68.40;;;;;;5045826;28;20219;-54
2023/03/11 04:01:55;;;;;;;0.90;0.60;;;20.60;68.40;;;;;;5046564;28;20537;-56
2023/03/11 04:04:22;;;;;;;0.90;0.65;;;20.60;68.30;;;;;;5047070;28;20195;-54
2023/03/11 04:06:49;;;;;;;0.95;0.60;;;20.60;68.30;;;;;;5045353;28;20223;-59
2023/03/11 04:09:17;;;;;;;0.80;0.60;;;20.60;68.30;;;;;;5048011;28;20262;-52
2023/03/11 04:11:43;;;;;;;0.90;0.70;;;20.60;68.30;;;;;;5047450;28;20188;-55
2023/03/11 04:14:10;;;;;;;0.80;0.60;;;20.60;68.40;;;;;;5039108;28;20211;-58
2023/03/11 04:16:37;;;;;;;0.80;0.60;;;20.60;68.30;;;;;;5045812;28;20701;-60
2023/03/11 04:19:04;;;;;;;0.98;0.70;;;20.60;68.20;;;;;;5046613;28;20195;-54
2023/03/11 04:21:32;;;;;;;0.80;0.60;;;20.60;68.20;;;;;;5049676;28;20246;-58
2023/03/11 04:23:58;;;;;;;0.90;0.70;;;20.60;68.20;;;;;;5047512;28;20200;-53
2023/03/11 04:26:28;;;;;;;0.90;0.60;;;20.60;68.20;;;;;;5050190;28;20226;-54
2023/03/11 04:28:54;;;;;;;1.20;0.73;;;20.60;68.20;;;;;;5046581;28;20200;-53
2023/03/11 04:31:21;;;;;;;0.80;0.60;;;20.60;68.20;;;;;;5045746;28;20188;-50
2023/03/11 04:33:48;;;;;;;0.80;0.65;;;20.60;68.20;;;;;;5048592;28;20220;-53
2023/03/11 04:36:15;;;;;;;0.80;0.60;;;20.60;68.20;;;;;;5050583;28;20649;-58
2023/03/11 04:38:41;;;;;;;0.75;0.55;;;20.60;68.10;;;;;;5049990;28;20195;-53
2023/03/11 04:41:08;;;;;;;1.27;0.60;;;20.60;68.10;;;;;;5045140;28;20199;-58
2023/03/11 04:43:36;;;;;;;0.80;0.60;;;20.60;68.10;;;;;;5050220;28;20199;-54
2023/03/11 04:46:03;;;;;;;0.80;0.60;;;20.70;68.20;;;;;;5042013;28;20196;-51
2023/03/11 04:48:29;;;;;;;0.80;0.60;;;20.70;68.20;;;;;;5044400;28;20252;-62
2023/03/11 04:50:56;;;;;;;1.25;0.73;;;20.70;68.20;;;;;;5040852;28;20202;-66
2023/03/11 04:53:23;;;;;;;1.38;0.60;;;20.70;68.30;;;;;;5036216;28;20469;-61
2023/03/11 04:55:51;;;;;;;2.83;0.75;;;20.70;68.20;;;;;;5046199;28;20206;-61
2023/03/11 04:58:17;;;;;;;0.80;0.60;;;20.70;68.20;;;;;;5047329;28;20211;-53
2023/03/11 05:00:46;;;;;;;0.80;0.60;;;20.70;68.20;;;;;;5046792;28;20200;-53
2023/03/11 05:03:12;;;;;;;0.80;0.60;;;20.70;68.20;;;;;;5038210;28;20199;-55
2023/03/11 05:05:39;;;;;;;0.80;0.60;;;20.70;68.20;;;;;;5046106;28;20196;-61
2023/03/11 05:08:06;;;;;;;0.90;0.60;;;20.70;68.20;;;;;;5036406;28;20228;-57
2023/03/11 05:10:33;;;;;;;0.80;0.60;;;20.70;68.20;;;;;;5044207;28;20198;-55
2023/03/11 05:12:59;;;;;;;0.90;0.70;;;20.70;68.20;;;;;;5044872;28;20207;-56
2023/03/11 05:15:27;;;;;;;0.80;0.60;;;20.70;68.20;;;;;;5041502;28;20203;-51
2023/03/11 05:17:55;;;;;;;0.80;0.60;;;20.70;68.10;;;;;;5045012;28;20207;-52
2023/03/11 05:20:22;;;;;;;1.10;0.75;;;20.70;68.10;;;;;;5048346;28;20202;-53
2023/03/11 05:22:49;;;;;;;0.90;0.70;;;20.70;68.10;;;;;;5047408;28;20223;-51
2023/03/11 05:25:16;;;;;;;0.80;0.60;;;20.70;68.10;;;;;;5044785;28;20279;-53
2023/03/11 05:27:43;;;;;;;2.00;0.80;;;20.70;68.10;;;;;;5041250;28;20295;-53
2023/03/11 05:30:11;;;;;;;0.80;0.60;;;20.70;68.10;;;;;;5045739;28;20195;-54
2023/03/11 05:32:37;;;;;;;1.10;0.65;;;20.70;68.10;;;;;;5043702;28;20222;-59
2023/03/11 05:35:06;;;;;;;1.10;0.70;;;20.70;68.10;;;;;;5044723;28;20200;-53
2023/03/11 05:37:34;;;;;;;0.80;0.60;;;20.70;68.10;;;;;;5047726;28;20555;-51
2023/03/11 05:40:00;;;;;;;0.80;0.70;;;20.70;68.00;;;;;;5040739;28;20463;-54
2023/03/11 05:42:27;;;;;;;0.88;0.70;;;20.70;68.00;;;;;;5043302;28;20203;-49
2023/03/11 05:44:54;;;;;;;1.00;0.70;;;20.70;68.80;;;;;;5043547;28;20199;-53
2023/03/11 05:47:21;;;;;;;0.90;0.73;;;20.70;68.00;;;;;;5035307;28;20223;-55
2023/03/11 05:49:48;;;;;;;0.93;0.60;;;20.70;68.10;;;;;;5041929;28;20196;-51
2023/03/11 05:52:16;;;;;;;0.90;0.70;;;20.70;67.90;;;;;;5048002;28;20223;-55
2023/03/11 05:54:43;;;;;;;0.80;0.60;;;20.70;67.90;;;;;;5043159;28;20663;-55
2023/03/11 05:57:10;;;;;;;0.80;0.60;;;20.70;67.90;;;;;;5038322;28;20450;-56
2023/03/11 05:59:37;;;;;;;1.00;0.80;;;20.70;68.00;;;;;;5042036;28;20560;-55
2023/03/11 06:02:04;;;;;;;0.90;0.60;;;20.70;67.90;;;;;;5038647;28;20224;-57
2023/03/11 06:04:30;;;;;;;0.80;0.60;;;20.70;67.90;;;;;;5042914;28;20195;-53
2023/03/11 06:06:57;;;;;;;0.85;0.60;;;20.70;67.90;;;;;;5040432;28;20219;-55
2023/03/11 06:09:25;;;;;;;0.80;0.60;;;20.70;67.90;;;;;;5046595;28;20202;-59
2023/03/11 06:11:52;;;;;;;1.00;0.60;;;20.70;67.90;;;;;;5048023;28;20204;-57
2023/03/11 06:14:19;;;;;;;0.85;0.60;;;20.70;67.90;;;;;;5048193;28;20461;-53
2023/03/11 06:16:46;;;;;;;0.80;0.60;;;20.70;67.90;;;;;;5050001;28;20199;-63
2023/03/11 06:19:12;;;;;;;1.00;0.70;;;20.70;67.80;;;;;;5049559;28;20191;-54
2023/03/11 06:21:39;;;;;;;0.80;0.60;;;20.70;67.80;;;;;;5050590;28;20843;-53
2023/03/11 06:24:07;;;;;;;0.87;0.60;;;20.70;67.80;;;;;;5050479;28;20582;-63
2023/03/11 06:26:35;;;;;;;1.00;0.70;;;20.70;67.80;;;;;;5051245;28;20807;-55
2023/03/11 06:29:01;;;;;;;0.80;0.60;;;20.80;67.90;;;;;;5050663;28;20234;-54
2023/03/11 06:31:29;;;;;;;0.80;0.60;;;20.80;67.90;;;;;;5049441;28;20198;-56
2023/03/11 06:33:58;;;;;;;0.85;0.63;;;20.80;67.90;;;;;;5048883;28;20196;-57
2023/03/11 06:36:25;;;;;;;1.00;0.70;;;20.80;67.90;;;;;;5047953;28;20563;-57
2023/03/11 06:38:53;;;;;;;0.90;0.70;;;20.70;67.80;;;;;;5045766;28;20466;-60
2023/03/11 06:41:20;;;;;;;0.70;0.50;;;20.70;67.80;;;;;;5040612;28;20210;-54
2023/03/11 06:43:48;;;;;;;0.85;0.60;;;20.70;67.80;;;;;;5049744;28;20211;-63
2023/03/11 06:46:17;;;;;;;0.90;0.70;;;20.70;67.80;;;;;;5046998;28;20207;-56
2023/03/11 06:48:44;;;;;;;0.80;0.60;;;20.70;67.80;;;;;;5046498;28;20215;-55
2023/03/11 06:51:11;;;;;;;0.80;0.60;;;20.70;67.80;;;;;;5043681;28;20191;-55
2023/03/11 06:53:38;;;;;;;0.90;0.70;;;20.70;68.70;;;;;;5050015;28;20202;-54
2023/03/11 06:56:07;;;;;;;0.90;0.60;;;20.60;67.60;;;;;;5050954;28;20202;-54
2023/03/11 06:58:36;;;;;;;0.80;0.60;;;20.60;67.70;;;;;;5044209;28;20202;-60
2023/03/11 07:01:06;;;;;;;0.90;0.70;;;20.60;67.70;;;;;;5042452;28;20682;-60
2023/03/11 07:03:32;;;;;;;0.90;0.70;;;20.60;67.70;;;;;;5041905;28;20227;-61
2023/03/11 07:06:00;;;;;;;1.40;0.70;;;20.60;67.60;;;;;;5039847;28;20200;-55
2023/03/11 07:08:27;;;;;;;0.90;0.70;;;20.60;67.60;;;;;;5032891;28;20272;-59
2023/03/11 07:11:01;;;;;;;0.90;0.70;;;20.70;67.70;;;;;;5041758;28;20203;-56
2023/03/11 07:13:28;;;;;;;0.80;0.60;;;20.70;67.70;;;;;;5049736;28;20195;-54
2023/03/11 07:16:04;;;;;;;1.00;0.60;;;20.70;67.70;;;;;;5048281;28;20234;-57
2023/03/11 07:18:32;;;;;;;0.80;0.60;;;20.70;67.60;;;;;;5040562;28;20663;-54
2023/03/11 07:20:58;;;;;;;1.00;0.60;;;20.70;67.60;;;;;;5048129;28;20661;-59
2023/03/11 07:23:25;;;;;;;0.80;0.63;;;20.70;67.60;;;;;;5051033;28;20552;-53
2023/03/11 07:25:54;;;;;;;1.10;0.63;;;20.80;67.70;;;;;;5046882;28;20192;-53
2023/03/11 07:28:21;;;;;;;0.80;0.60;;;20.80;67.70;;;;;;5042093;28;20216;-57
2023/03/11 07:30:48;;;;;;;0.90;0.68;;;20.80;67.70;;;;;;5040198;28;20560;-52
2023/03/11 07:33:16;;;;;;;0.80;0.60;;;20.80;67.60;;;;;;5050041;28;20192;-54
2023/03/11 07:35:43;;;;;;;0.95;0.70;;;20.80;67.60;;;;;;5049326;28;20202;-58
2023/03/11 07:38:10;;;;;;;0.80;0.60;;;20.80;67.60;;;;;;5050687;28;20588;-59
2023/03/11 07:40:36;;;;;;;0.90;0.60;;;20.80;67.60;;;;;;5049518;28;20188;-53
2023/03/11 07:43:03;;;;;;;0.80;0.60;;;20.80;67.60;;;;;;5050205;28;20195;-53
2023/03/11 07:45:30;;;;;;;1.00;0.68;;;20.80;67.60;;;;;;5046828;28;20200;-60
2023/03/11 07:47:57;;;;;;;0.80;0.60;;;20.80;67.60;;;;;;5045245;28;20219;-62
2023/03/11 07:50:25;;;;;;;1.00;0.60;;;20.80;67.60;;;;;;5046418;28;20655;-62
2023/03/11 07:52:52;;;;;;;0.80;0.60;;;20.80;67.60;;;;;;5043425;28;20200;-54
2023/03/11 07:55:19;;;;;;;0.80;0.60;;;20.80;67.50;;;;;;5047414;28;20195;-53
2023/03/11 07:57:48;;;;;;;0.80;0.68;;;20.80;67.60;;;;;;5045377;28;20488;-59
2023/03/11 08:00:16;;;;;;;1.15;0.80;;;20.80;67.50;;;;;;5037678;28;20192;-64
2023/03/11 08:02:42;;;;;;;0.93;0.60;;;20.80;67.50;;;;;;5042812;28;20212;-53
2023/03/11 08:05:10;;;;;;;0.80;0.60;;;20.80;67.50;;;;;;5044398;28;20470;-67
2023/03/11 08:07:39;;;;;;;0.90;0.60;;;20.80;67.50;;;;;;5043059;28;20485;-60
2023/03/11 08:10:06;;;;;;;1.00;0.68;;;20.80;67.50;;;;;;5038130;28;20261;-55
2023/03/11 08:12:33;;;;;;;0.90;0.70;;;20.80;67.60;;;;;;5046571;28;20192;-56
2023/03/11 08:15:00;;;;;;;0.85;0.70;;;20.90;67.70;;;;;;5039117;28;20204;-50
2023/03/11 08:17:27;;;;;;;0.80;0.60;;;20.90;67.70;;;;;;5041550;28;20200;-61
2023/03/11 08:19:53;;;;;;;1.00;0.68;;;20.90;67.80;;;;;;5043974;28;20206;-61
2023/03/11 08:22:20;;;;;;;0.80;0.60;;;20.90;67.90;;;;;;5042482;28;20215;-56
2023/03/11 08:24:52;;;;;;;0.90;0.70;;;20.90;67.80;;;;;;5043714;28;20207;-66
2023/03/11 08:27:19;;;;;;;2.78;0.70;;;20.90;67.90;;;;;;5045708;28;20226;-55
2023/03/11 08:29:45;;;;;;;2.20;0.80;;;20.90;68.30;;;;;;5038964;28;20207;-51
2023/03/11 08:32:12;;;;;;;2.60;0.60;;;20.90;68.10;;;;;;5049242;28;20465;-51
2023/03/11 08:34:39;;;;;;;2.10;0.70;;;21.00;68.20;;;;;;5044408;28;20462;-54
2023/03/11 08:37:05;;;;;;;2.30;1.10;;;21.00;68.10;;;;;;5047418;28;20462;-52
2023/03/11 08:39:32;;;;;;;0.90;0.70;;;21.00;68.10;;;;;;5041844;28;20462;-52
2023/03/11 08:42:01;;;;;;;1.10;0.90;;;21.00;68.10;;;;;;5047398;28;20466;-52
2023/03/11 08:44:28;;;;;;;9.60;1.93;;;21.00;68.10;;;;;;5045360;28;20548;-48
2023/03/11 08:46:57;;;;;;;0.90;0.60;;;21.00;68.10;;;;;;5047815;28;20462;-51
2023/03/11 08:49:24;;;;;;;0.97;0.70;;;21.00;68.20;;;;;;5046463;28;20477;-53
2023/03/11 08:51:50;;;;;;;1.00;0.70;;;21.00;68.20;;;;;;5036630;28;20981;-48
2023/03/11 08:54:17;;;;;;;0.90;0.70;;;21.10;68.40;;;;;;5047839;28;20454;-48
2023/03/11 08:56:44;;;;;;;0.90;0.70;;;21.10;68.50;;;;;;5043546;28;20446;-51
2023/03/11 08:59:12;;;;;;;0.80;0.50;;;21.10;68.40;;;;;;5048721;28;20553;-51
2023/03/11 09:01:39;;;;;;;3.37;0.67;;;21.10;68.40;;;;;;5045153;28;20458;-49
2023/03/11 09:04:06;;;;;;;1.30;0.73;;;21.10;68.50;;;;;;5047594;28;20472;-61
2023/03/11 09:06:32;;;;;;;0.90;0.70;;;21.10;68.40;;;;;;5039221;28;20460;-50
2023/03/11 09:08:59;;;;;;;0.90;0.60;;;21.10;68.40;;;;;;5041816;28;20489;-55
2023/03/11 09:11:26;;;;;;;1.10;0.60;;;21.10;68.40;;;;;;5042429;28;20461;-52
2023/03/11 09:13:53;;;;;;;0.80;0.70;;;21.10;68.40;;;;;;5042227;28;20446;-51
2023/03/11 09:16:23;;;;;;;0.90;0.70;;;21.10;68.30;;;;;;5044649;28;20458;-50
2023/03/11 09:18:50;;;;;;;1.10;0.77;;;21.10;68.30;;;;;;5044564;28;20469;-57
2023/03/11 09:21:16;;;;;;;1.10;0.90;;;21.10;68.30;;;;;;5054046;28;20950;-53
2023/03/11 09:23:43;;;;;;;0.80;0.60;;;21.10;68.30;;;;;;5043342;28;20462;-49
2023/03/11 09:26:10;;;;;;;0.90;0.60;;;21.20;68.40;;;;;;5045726;28;20667;-52
2023/03/11 09:28:36;;;;;;;0.93;0.70;;;21.20;68.40;;;;;;5045653;28;20480;-52
2023/03/11 09:31:03;;;;;;;0.80;0.60;;;21.20;68.30;;;;;;5040790;28;20474;-53
2023/03/11 09:33:32;;;;;;;0.93;0.70;;;21.20;68.30;;;;;;5045198;28;20457;-52
2023/03/11 09:35:59;;;;;;;1.40;0.80;;;21.20;68.30;;;;;;5046097;28;20465;-50
2023/03/11 09:38:25;;;;;;;1.63;0.60;;;21.20;68.20;;;;;;5043315;28;20965;-49
2023/03/11 09:40:59;;;;;;;0.90;0.80;;;21.20;68.30;;;;;;5045386;28;20457;-54
2023/03/11 09:43:40;;;;;;;0.80;0.60;;;21.20;68.30;;;;;;5039571;28;20473;-48
2023/03/11 09:46:28;;;;;;;0.90;0.60;;;21.20;68.30;;;;;;5035794;28;21086;-56
2023/03/11 09:49:05;;;;;;;0.87;0.60;;;21.20;68.20;;;;;;5044359;28;20480;-48
2023/03/11 09:51:38;;;;;;;1.27;0.70;;;21.20;68.20;;;;;;5048899;28;20464;-53
2023/03/11 09:54:10;;;;;;;0.90;0.60;;;21.20;68.20;;;;;;5043524;28;20212;-51
2023/03/11 09:56:38;;;;;;;0.80;0.60;;;21.20;69.00;;;;;;5052577;28;20434;-53
2023/03/11 09:59:07;;;;;;;1.10;0.60;;;21.20;68.20;;;;;;5038490;28;20455;-53
2023/03/11 10:01:37;;;;;;;0.90;0.70;;;21.20;68.10;;;;;;5049097;28;20454;-56
2023/03/11 10:04:10;;;;;;;0.90;0.70;;;21.20;68.10;;;;;;5049487;28;20461;-51
2023/03/11 10:06:37;;;;;;;1.00;0.70;;;21.20;68.10;;;;;;5050145;28;20485;-52
2023/03/11 10:09:19;;;;;;;1.07;0.60;;;21.20;68.10;;;;;;5046529;28;20499;-55
2023/03/11 10:11:57;;;;;;;0.90;0.70;;;21.20;68.10;;;;;;5042817;28;20458;-52
2023/03/11 10:14:42;;;;;;;1.00;0.70;;;21.20;68.10;;;;;;5046758;28;20834;-51
2023/03/11 10:17:22;;;;;;;0.90;0.60;;;21.20;68.00;;;;;;5051320;28;20465;-52
2023/03/11 10:19:55;;;;;;;4.20;1.20;;;21.20;68.00;;;;;;5039054;28;20552;-57
2023/03/11 10:22:27;;;;;;;2.17;1.27;;;21.20;67.40;;;;;;5038303;28;20842;-52
2023/03/11 10:25:04;;;;;;;12.37;1.13;;;21.00;65.90;;;;;;5044404;28;20827;-56
2023/03/11 10:27:37;;;;;;;3.30;1.30;;;21.00;65.50;;;;;;5046430;28;20508;-53
2023/03/11 10:30:12;;;;;;;7.33;1.37;;;21.00;65.60;;;;;;5043747;28;20476;-50
2023/03/11 10:32:45;;;;;;;5.43;0.87;;;21.10;65.80;;;;;;5050338;28;20469;-49
2023/03/11 10:35:20;;;;;;;3.53;0.90;;;21.20;66.50;;;;;;5042404;28;20949;-55
2023/03/11 10:37:53;;;;;;;8.53;1.47;;;21.30;66.50;;;;;;5047287;28;20465;-59
2023/03/11 10:40:26;;;;;;;5.13;0.97;;;21.30;66.60;;;;;;5038588;28;20459;-61
2023/03/11 10:42:55;;;;;;;3.50;0.80;;;21.20;66.70;;;;;;5044829;28;20473;-60
2023/03/11 10:45:23;;;;;;;4.63;1.03;;;21.20;66.80;;;;;;5043979;28;20489;-59
2023/03/11 10:47:50;;;;;;;1.53;0.87;;;21.20;66.90;;;;;;5048746;28;20637;-61
2023/03/11 10:50:19;;;;;;;1.07;0.80;;;21.20;67.10;;;;;;5046364;28;20834;-60
2023/03/11 10:53:05;;;;;;;5.63;0.90;;;21.20;67.20;;;;;;5051307;28;20762;-59
2023/03/11 10:55:32;;;;;;;2.57;1.00;;;21.20;67.30;;;;;;5045491;28;20962;-57
2023/03/11 10:58:06;;;;;;;1.33;0.90;;;21.30;67.50;;;;;;5052838;28;20480;-60
2023/03/11 11:00:33;;;;;;;1.40;1.03;;;21.30;67.60;;;;;;5047306;28;20454;-59
2023/03/11 11:03:03;;;;;;;2.70;1.73;;;21.30;67.80;;;;;;5045180;28;20461;-54
2023/03/11 11:05:32;;;;;;;3.10;0.80;;;21.30;67.80;;;;;;5043972;28;20465;-55
2023/03/11 11:08:05;;;;;;;1.10;0.70;;;21.40;68.00;;;;;;5049696;28;20464;-55
2023/03/11 11:10:33;;;;;;;0.90;0.70;;;21.40;68.00;;;;;;5048345;28;20478;-60
2023/03/11 11:13:02;;;;;;;1.27;0.70;;;21.40;68.10;;;;;;5045487;28;20865;-52
2023/03/11 11:15:31;;;;;;;1.10;0.80;;;21.40;68.20;;;;;;5047648;28;21191;-56
2023/03/11 11:18:01;;;;;;;1.10;0.70;;;21.40;68.20;;;;;;5049218;28;20833;-56
2023/03/11 11:20:30;;;;;;;2.27;0.83;;;21.50;68.40;;;;;;5047695;28;20458;-57
2023/03/11 11:23:00;;;;;;;1.13;0.83;;;21.50;68.40;;;;;;5041006;28;20481;-59
2023/03/11 11:25:30;;;;;;;1.00;0.83;;;21.50;68.40;;;;;;5041966;28;21058;-56
2023/03/11 11:27:59;;;;;;;1.20;0.90;;;21.50;68.50;;;;;;5040908;28;20462;-57
2023/03/11 11:30:27;;;;;;;2.10;0.70;;;21.50;68.50;;;;;;5039713;28;20965;-57
2023/03/11 11:32:54;;;;;;;1.20;0.70;;;21.50;68.60;;;;;;5039170;28;20477;-56
2023/03/11 11:35:23;;;;;;;0.90;0.70;;;21.60;68.70;;;;;;5042401;28;20457;-55
2023/03/11 11:37:52;;;;;;;0.90;0.60;;;21.60;68.80;;;;;;5040312;28;20457;-58
2023/03/11 11:40:27;;;;;;;1.83;0.70;;;21.60;68.80;;;;;;5049299;28;20461;-62
2023/03/11 11:42:57;;;;;;;1.37;0.90;;;21.60;68.80;;;;;;5036905;28;20458;-59
2023/03/11 11:45:36;;;;;;;3.23;1.10;;;21.60;68.80;;;;;;5040611;28;20469;-56
2023/03/11 11:48:10;;;;;;;1.30;0.80;;;21.60;68.80;;;;;;5032554;28;20458;-55
2023/03/11 11:50:41;;;;;;;1.67;0.80;;;21.60;68.90;;;;;;5037982;28;20489;-60
2023/03/11 11:53:19;;;;;;;0.90;0.70;;;21.60;68.90;;;;;;5046049;28;20576;-61
2023/03/11 11:55:52;;;;;;;1.67;0.80;;;21.60;68.90;;;;;;5051542;28;20460;-59
2023/03/11 11:58:19;;;;;;;1.00;0.70;;;21.60;69.00;;;;;;5047985;28;20942;-59
2023/03/11 12:01:15;;;;;;;1.47;0.80;;;21.60;69.00;;;;;;5046531;28;20950;-53
2023/03/11 12:04:12;;;;;;;2.53;1.77;;;21.60;69.00;;;;;;5035820;28;20511;-57
2023/03/11 12:06:47;;;;;;;0.97;0.70;;;21.60;69.00;;;;;;5046493;28;20818;-57
2023/03/11 12:09:25;;;;;;;1.57;0.77;;;21.60;69.10;;;;;;5045377;28;20488;-58
2023/03/11 12:12:00;;;;;;;1.10;0.77;;;21.60;69.10;;;;;;5044961;28;20457;-57
2023/03/11 12:14:34;;;;;;;1.20;0.77;;;21.60;69.10;;;;;;5042067;28;20465;-57
2023/03/11 12:17:03;;;;;;;1.70;0.77;;;21.60;69.20;;;;;;5042970;28;20461;-58
2023/03/11 12:19:36;;;;;;;0.90;0.70;;;21.70;69.30;;;;;;5045621;28;20465;-61
2023/03/11 12:22:26;;;;;;;1.00;0.70;;;21.70;69.30;;;;;;5037998;28;21032;-61
2023/03/11 12:25:08;;;;;;;0.97;0.70;;;21.70;69.30;;;;;;5040590;28;20844;-62
2023/03/11 12:27:43;;;;;;;1.20;0.73;;;21.70;69.40;;;;;;5044158;28;20465;-57
2023/03/11 12:30:16;;;;;;;1.00;0.70;;;21.70;69.30;;;;;;5037407;28;20701;-63
2023/03/11 12:32:48;;;;;;;1.10;0.80;;;21.70;69.30;;;;;;5047304;28;20477;-58
2023/03/11 12:35:22;;;;;;;0.97;0.70;;;21.70;69.30;;;;;;5046751;28;20458;-59
2023/03/11 12:37:56;;;;;;;1.57;0.80;;;21.70;69.30;;;;;;5038092;28;20467;-56
2023/03/11 12:40:49;;;;;;;1.10;0.80;;;21.70;69.40;;;;;;5040703;28;20473;-57
2023/03/11 12:43:43;;;;;;;0.90;0.70;;;21.70;69.30;;;;;;5045381;28;20465;-55
2023/03/11 12:46:11;;;;;;;1.20;0.80;;;21.70;69.30;;;;;;5039755;28;21119;-56
2023/03/11 12:48:43;;;;;;;0.90;0.70;;;21.70;69.40;;;;;;5042610;28;20983;-63
2023/03/11 12:51:38;;;;;;;1.40;0.90;;;21.80;69.50;;;;;;5047023;28;20450;-54
2023/03/11 12:54:22;;;;;;;1.50;0.70;;;21.80;69.50;;;;;;5048188;28;20474;-54
2023/03/11 12:56:54;;;;;;;1.00;0.60;;;21.80;69.50;;;;;;5044596;28;20487;-60
2023/03/11 12:59:51;;;;;;;0.90;0.70;;;21.80;69.50;;;;;;5046309;28;21009;-61